createdAt,value
2019-05-05T00:05:00.944Z,5.31
2019-05-05T00:10:08.463Z,4.91
2019-05-05T00:15:15.847Z,4.51
2019-05-05T00:20:25.011Z,4.45
2019-05-05T00:25:30.328Z,4.08
2019-05-05T00:30:37.774Z,4.12
2019-05-05T00:35:45.334Z,5.24
2019-05-05T00:40:54.820Z,4.91
2019-05-05T00:45:59.712Z,5.00
2019-05-05T00:51:07.382Z,4.46
2019-05-05T00:56:15.946Z,3.89
2019-05-05T01:01:24.901Z,3.91
2019-05-05T01:06:30.239Z,4.04
2019-05-05T01:11:37.866Z,3.82
2019-05-05T01:16:45.607Z,3.91
2019-05-05T01:21:52.039Z,3.64
2019-05-05T01:26:59.416Z,3.64
2019-05-05T01:32:06.906Z,3.80
2019-05-05T01:37:15.189Z,3.86
2019-05-05T01:42:21.279Z,3.98
2019-05-05T01:47:28.668Z,4.21
2019-05-05T01:52:36.103Z,3.82
2019-05-05T01:57:45.066Z,4.11
2019-05-05T02:02:50.421Z,3.84
2019-05-05T02:07:57.853Z,3.80
2019-05-05T02:13:05.321Z,4.06
2019-05-05T02:18:14.798Z,3.90
2019-05-05T02:23:19.881Z,3.44
2019-05-05T02:28:27.255Z,3.65
2019-05-05T02:33:35.450Z,4.01
2019-05-05T02:38:41.598Z,3.81
2019-05-05T02:43:48.955Z,3.26
2019-05-05T02:48:56.359Z,3.60
2019-05-05T02:54:04.423Z,3.44
2019-05-05T02:59:10.712Z,3.69
2019-05-05T03:04:18.036Z,3.84
2019-05-05T03:09:25.474Z,3.71
2019-05-05T03:14:34.130Z,3.63
2019-05-05T03:19:39.846Z,3.79
2019-05-05T03:24:47.192Z,3.76
2019-05-05T03:29:54.574Z,3.90
2019-05-05T03:35:04.156Z,3.87
2019-05-05T03:40:08.995Z,4.13
2019-05-05T03:45:16.355Z,4.14
2019-05-05T03:50:23.870Z,3.78
2019-05-05T03:55:31.087Z,4.51
2019-05-05T04:00:38.498Z,4.13
2019-05-05T04:05:45.939Z,4.52
2019-05-05T04:10:54.624Z,4.59
2019-05-05T04:16:00.238Z,3.94
2019-05-05T04:21:07.624Z,4.45
2019-05-05T04:26:15.048Z,4.63
2019-05-05T04:31:24.175Z,4.57
2019-05-05T04:36:29.323Z,4.57
2019-05-05T04:41:36.828Z,4.61
2019-05-05T04:46:44.332Z,4.39
2019-05-05T04:51:53.772Z,4.26
2019-05-05T04:56:58.542Z,4.47
2019-05-05T05:02:05.875Z,4.14
2019-05-05T05:07:13.616Z,4.37
2019-05-05T05:12:20.785Z,4.25
2019-05-05T05:17:28.153Z,4.18
2019-05-05T05:22:35.782Z,4.17
2019-05-05T05:27:44.327Z,4.24
2019-05-05T05:32:50.331Z,4.14
2019-05-05T05:37:57.840Z,4.22
2019-05-05T05:43:05.182Z,4.14
2019-05-05T05:48:14.420Z,4.52
2019-05-05T05:53:19.544Z,4.14
2019-05-05T05:58:26.910Z,4.46
2019-05-05T06:03:34.392Z,4.57
2019-05-05T06:08:43.816Z,4.46
2019-05-05T06:13:48.753Z,4.69
2019-05-05T06:18:56.106Z,4.64
2019-05-05T06:24:04.455Z,3.88
2019-05-05T06:29:10.423Z,4.41
2019-05-05T06:34:17.922Z,3.90
2019-05-05T06:39:25.302Z,4.89
2019-05-05T06:44:33.798Z,5.00
2019-05-05T06:49:39.661Z,4.95
2019-05-05T06:54:47.103Z,5.21
2019-05-05T06:59:54.561Z,5.01
2019-05-05T07:05:04.068Z,4.70
2019-05-05T07:10:09.455Z,5.69
2019-05-05T07:15:16.908Z,5.95
2019-05-05T07:20:24.261Z,5.72
2019-05-05T07:25:40.644Z,5.30
2019-05-05T07:30:38.552Z,5.97
2019-05-05T07:35:55.999Z,6.87
2019-05-05T07:40:54.507Z,6.71
2019-05-05T07:45:59.789Z,6.77
2019-05-05T07:51:07.167Z,6.57
2019-05-05T07:56:14.688Z,8.44
2019-05-05T08:01:22.051Z,8.19
2019-05-05T08:06:29.459Z,9.05
2019-05-05T08:11:36.872Z,9.63
2019-05-05T08:16:44.437Z,9.71
2019-05-05T08:21:51.845Z,10.82
2019-05-05T08:26:59.380Z,9.56
2019-05-05T08:32:06.692Z,8.66
2019-05-05T08:37:14.610Z,8.75
2019-05-05T08:42:24.433Z,8.35
2019-05-05T08:47:28.395Z,7.28
2019-05-05T08:52:35.840Z,7.29
2019-05-05T08:57:44.640Z,7.69
2019-05-05T09:02:50.361Z,6.67
2019-05-05T09:07:57.890Z,7.38
2019-05-05T09:13:05.353Z,7.24
2019-05-05T09:18:14.135Z,5.79
2019-05-05T09:23:20.107Z,6.12
2019-05-05T09:28:27.633Z,5.83
2019-05-05T09:33:35.195Z,6.14
2019-05-05T09:38:44.572Z,6.13
2019-05-05T09:43:49.861Z,5.32
2019-05-05T09:48:57.354Z,5.29
2019-05-05T09:54:14.066Z,5.08
2019-05-05T09:59:13.600Z,5.12
2019-05-05T10:04:19.171Z,4.66
2019-05-05T10:09:26.741Z,4.89
2019-05-05T10:14:34.364Z,5.09
2019-05-05T10:19:43.674Z,5.82
2019-05-05T10:24:48.880Z,5.34
2019-05-05T10:30:10.690Z,5.58
2019-05-05T10:34:58.201Z,4.65
2019-05-05T10:40:05.745Z,4.39
2019-05-05T10:45:13.617Z,4.24
2019-05-05T10:50:20.869Z,4.79
2019-05-05T10:55:28.413Z,5.26
2019-05-05T11:00:36.468Z,5.00
2019-05-05T11:05:44.780Z,4.89
2019-05-05T11:10:51.263Z,4.69
2019-05-05T11:16:00.129Z,4.10
2019-05-05T11:21:05.764Z,4.22
2019-05-05T11:26:14.366Z,3.65
2019-05-05T11:31:20.250Z,4.40
2019-05-05T11:36:27.768Z,5.00
2019-05-05T11:41:35.315Z,4.96
2019-05-05T11:46:44.276Z,4.91
2019-05-05T11:51:50.928Z,4.56
2019-05-05T11:56:58.380Z,4.49
2019-05-05T12:02:05.789Z,4.69
2019-05-05T12:07:14.671Z,4.75
2019-05-05T12:12:20.329Z,6.36
2019-05-05T12:17:27.895Z,6.21
2019-05-05T12:22:35.333Z,7.44
2019-05-05T12:27:42.890Z,6.78
2019-05-05T12:32:50.326Z,7.44
2019-05-05T12:37:57.925Z,8.73
2019-05-05T12:43:05.378Z,7.74
2019-05-05T12:48:13.440Z,6.60
2019-05-05T12:53:19.852Z,5.05
2019-05-05T12:58:27.304Z,4.22
2019-05-05T13:03:34.756Z,3.99
2019-05-05T13:08:44.370Z,4.53
2019-05-05T13:13:49.259Z,5.02
2019-05-05T13:18:56.741Z,4.92
2019-05-05T13:24:04.462Z,4.77
2019-05-05T13:29:13.944Z,4.18
2019-05-05T13:34:19.689Z,3.69
2019-05-05T13:39:27.165Z,3.65
2019-05-05T13:44:36.777Z,3.08
2019-05-05T13:49:43.593Z,4.02
2019-05-05T13:54:48.666Z,4.49
2019-05-05T13:59:56.010Z,4.73
2019-05-05T14:05:04.628Z,4.80
2019-05-05T14:10:10.466Z,4.18
2019-05-05T14:15:17.902Z,4.12
2019-05-05T14:20:25.299Z,3.23
2019-05-05T14:25:32.826Z,3.04
2019-05-05T14:30:40.232Z,2.99
2019-05-05T14:35:47.743Z,3.34
2019-05-05T14:40:55.248Z,2.91
2019-05-05T14:46:03.682Z,3.41
2019-05-05T14:51:09.601Z,3.32
2019-05-05T14:56:17.045Z,3.39
2019-05-05T15:01:24.827Z,3.71
2019-05-05T15:06:32.036Z,4.41
2019-05-05T15:11:39.501Z,4.62
2019-05-05T15:16:46.996Z,4.71
2019-05-05T15:21:54.492Z,4.03
2019-05-05T15:27:02.084Z,4.39
2019-05-05T15:32:09.689Z,3.80
2019-05-05T15:37:17.124Z,3.79
2019-05-05T15:42:24.700Z,3.83
2019-05-05T15:47:34.121Z,3.70
2019-05-05T15:52:39.280Z,3.25
2019-05-05T15:57:46.751Z,3.95
2019-05-05T16:02:54.864Z,3.84
2019-05-05T16:08:01.150Z,4.08
2019-05-05T16:13:08.516Z,3.82
2019-05-05T16:18:15.936Z,3.77
2019-05-05T16:23:23.313Z,3.83
2019-05-05T16:28:30.857Z,3.83
2019-05-05T16:33:38.183Z,3.68
2019-05-05T16:38:46.963Z,3.78
2019-05-05T16:43:54.355Z,3.81
2019-05-05T16:49:03.452Z,4.17
2019-05-05T16:54:08.698Z,4.18
2019-05-05T16:59:16.574Z,4.29
2019-05-05T17:04:24.367Z,4.15
2019-05-05T17:09:30.241Z,4.10
2019-05-05T17:14:37.661Z,4.46
2019-05-05T17:19:53.832Z,4.79
2019-05-05T17:24:49.086Z,4.20
2019-05-05T17:29:56.605Z,4.36
2019-05-05T17:35:04.071Z,3.59
2019-05-05T17:40:11.616Z,3.44
2019-05-05T17:45:19.267Z,3.45
2019-05-05T17:50:26.710Z,4.31
2019-05-05T17:55:34.146Z,4.19
2019-05-05T18:00:43.489Z,3.55
2019-05-05T18:05:49.159Z,3.20
2019-05-05T18:10:56.670Z,3.65
2019-05-05T18:16:04.588Z,3.31
2019-05-05T18:21:11.335Z,4.27
2019-05-05T18:26:18.768Z,3.97
2019-05-05T18:31:26.408Z,3.97
2019-05-05T18:36:33.821Z,4.09
2019-05-05T18:41:41.284Z,3.75
2019-05-05T18:46:48.892Z,4.44
2019-05-05T18:51:56.351Z,3.68
2019-05-05T18:57:05.289Z,4.05
2019-05-05T19:02:10.884Z,3.91
2019-05-05T19:07:18.399Z,4.23
2019-05-05T19:12:26.296Z,3.58
2019-05-05T19:17:34.498Z,3.65
2019-05-05T19:22:41.136Z,3.76
2019-05-05T19:27:48.953Z,3.52
2019-05-05T19:32:56.481Z,3.83
2019-05-05T19:38:04.938Z,4.25
2019-05-05T19:43:11.331Z,4.13
2019-05-05T19:48:19.083Z,3.47
2019-05-05T19:53:26.693Z,3.33
2019-05-05T19:58:36.459Z,3.96
2019-05-05T20:03:41.496Z,3.35
2019-05-05T20:08:48.355Z,3.49
2019-05-05T20:14:06.698Z,2.91
2019-05-05T20:19:09.775Z,3.11
2019-05-05T20:24:04.686Z,3.05
2019-05-05T20:29:14.910Z,3.37
2019-05-05T20:34:19.323Z,3.23
2019-05-05T20:39:26.859Z,3.41
2019-05-05T20:44:34.418Z,3.44
2019-05-05T20:49:44.226Z,3.16
2019-05-05T20:54:48.825Z,3.77
2019-05-05T20:59:56.580Z,3.62
2019-05-05T21:05:04.220Z,3.56
2019-05-05T21:10:11.561Z,3.98
2019-05-05T21:15:19.004Z,4.03
2019-05-05T21:20:26.484Z,3.86
2019-05-05T21:25:33.942Z,4.39
2019-05-05T21:30:41.694Z,3.88
2019-05-05T21:35:48.807Z,4.52
2019-05-05T21:40:56.562Z,4.60
2019-05-05T21:46:04.425Z,4.56
2019-05-05T21:51:10.924Z,4.92
2019-05-05T21:56:18.340Z,4.26
2019-05-05T22:01:27.550Z,4.27
2019-05-05T22:06:33.651Z,4.64
2019-05-05T22:11:40.245Z,4.48
2019-05-05T22:16:47.691Z,6.11
2019-05-05T22:21:55.167Z,5.30
2019-05-05T22:27:04.684Z,6.20
2019-05-05T22:32:11.063Z,6.84
2019-05-05T22:37:18.463Z,6.80
2019-05-05T22:42:25.935Z,5.78
2019-05-05T22:47:34.550Z,7.23
2019-05-05T22:52:40.243Z,5.97
2019-05-05T22:57:47.661Z,6.36
2019-05-05T23:02:55.065Z,4.82
2019-05-05T23:08:04.036Z,6.20
2019-05-05T23:13:09.518Z,5.23
2019-05-05T23:18:16.964Z,5.06
2019-05-05T23:23:24.600Z,4.95
2019-05-05T23:28:33.931Z,4.27
2019-05-05T23:33:39.203Z,5.26
2019-05-05T23:38:46.794Z,4.67
2019-05-05T23:43:54.595Z,4.48
2019-05-05T23:49:01.103Z,4.74
2019-05-05T23:54:08.548Z,6.09
2019-05-05T23:59:16.009Z,5.96
